Time;durP1;ratioP1;P1;durP2;ratioP2;P2;SDS_P1;SDS_P2;PMS_P1;PMS_P2;Temp;Humidity;BMP_temperature;BMP_pressure;BME280_temperature;BME280_humidity;BME280_pressure;Samples;Min_cycle;Max_cycle;Signal;HPM_P1;HPM_P2
2021/12/09 00:01:46;;;;;;;;;0.75;0.25;;;;;6.24;57.61;99952.06;5048946;28;45507;-78
2021/12/09 00:04:14;;;;;;;;;1.00;1.00;;;;;6.97;57.23;100070.47;5058664;28;45377;-75
2021/12/09 00:06:42;;;;;;;;;2.00;1.25;;;;;7.08;57.37;100091.38;5059556;28;45506;-77
2021/12/09 00:09:11;;;;;;;;;2.00;1.00;;;;;6.93;57.49;100059.19;5053154;28;45457;-76
2021/12/09 00:11:44;;;;;;;;;4.50;2.00;;;;;7.12;57.36;100091.41;5053190;28;45454;-73
2021/12/09 00:14:16;;;;;;;;;1.00;1.00;;;;;7.11;57.27;100087.03;5055156;28;45650;-72
2021/12/09 00:16:42;;;;;;;;;3.25;1.50;;;;;7.00;57.57;100068.78;5049329;28;45477;-74
2021/12/09 00:19:07;;;;;;;;;1.00;1.00;;;;;7.08;57.89;100096.59;5048660;28;45550;-74
2021/12/09 00:21:34;;;;;;;;;2.25;1.00;;;;;7.06;57.86;100099.16;5045896;28;45436;-75
2021/12/09 00:24:00;;;;;;;;;0.25;0.25;;;;;7.07;57.64;100105.25;5046292;28;45472;-80
2021/12/09 00:26:25;;;;;;;;;1.00;1.00;;;;;6.56;57.61;100024.25;5064849;27;45583;-80
2021/12/09 00:28:51;;;;;;;;;1.00;1.00;;;;;6.76;57.66;100047.78;5074315;27;45747;-76
2021/12/09 00:31:18;;;;;;;;;1.75;1.00;;;;;7.05;57.97;100107.84;5057861;27;45349;-74
2021/12/09 00:33:45;;;;;;;;;1.00;1.00;;;;;6.69;57.58;100043.41;5053863;28;45354;-72
2021/12/09 00:36:13;;;;;;;;;0.00;0.00;;;;;7.03;58.00;100100.91;5057890;28;46211;-76
2021/12/09 00:38:41;;;;;;;;;1.00;1.00;;;;;6.96;57.71;100102.59;5054730;28;45579;-77
2021/12/09 00:41:14;;;;;;;;;1.00;1.00;;;;;6.97;58.18;100102.56;5053592;28;45934;-75
2021/12/09 00:43:42;;;;;;;;;1.00;1.00;;;;;6.82;57.74;100078.19;5072438;28;45766;-72
2021/12/09 00:46:09;;;;;;;;;1.00;1.00;;;;;6.74;58.04;100068.59;5074004;27;46337;-71
2021/12/09 00:48:36;;;;;;;;;0.50;0.50;;;;;6.91;58.15;100110.38;5069256;27;45340;-72
2021/12/09 00:51:03;;;;;;;;;5.00;1.00;;;;;6.79;57.94;100097.28;5067222;28;45544;-72
2021/12/09 00:53:28;;;;;;;;;3.00;1.75;;;;;6.84;58.02;100099.91;5053728;28;45791;-70
2021/12/09 00:55:54;;;;;;;;;0.75;0.50;;;;;6.83;58.23;100109.44;5053957;28;46237;-73
2021/12/09 00:58:20;;;;;;;;;3.00;1.00;;;;;6.36;58.09;100037.97;5053864;28;46040;-74
2021/12/09 01:00:50;;;;;;;;;0.50;0.50;;;;;6.62;58.54;100076.34;5053383;28;45380;-74
2021/12/09 01:03:16;;;;;;;;;1.00;1.00;;;;;6.58;58.77;100082.38;5058090;28;45442;-72
2021/12/09 01:05:44;;;;;;;;;2.00;0.75;;;;;6.85;58.72;100125.94;5055233;28;47778;-78
2021/12/09 01:08:10;;;;;;;;;2.00;1.50;;;;;6.87;58.04;100113.81;5052992;28;46070;-74
2021/12/09 01:10:36;;;;;;;;;2.00;2.00;;;;;6.73;58.23;100113.69;5054286;28;45399;-77
2021/12/09 01:13:03;;;;;;;;;3.00;1.00;;;;;6.78;58.48;100126.75;5054669;27;45441;-73
2021/12/09 01:15:29;;;;;;;;;1.75;0.75;;;;;6.72;58.19;100101.56;5052105;28;46971;-72
2021/12/09 01:17:55;;;;;;;;;1.00;1.00;;;;;6.70;58.23;100113.69;5052163;28;45834;-71
2021/12/09 01:20:26;;;;;;;;;1.00;1.00;;;;;6.75;58.25;100116.31;5054185;28;45680;-74
2021/12/09 01:22:56;;;;;;;;;1.25;1.00;;;;;6.47;58.39;100069.25;5059112;28;45415;-73
2021/12/09 01:25:24;;;;;;;;;2.00;1.00;;;;;6.45;59.14;100070.09;5057534;28;45424;-74
2021/12/09 01:27:54;;;;;;;;;2.00;1.00;;;;;6.59;58.74;100102.31;5051146;28;46518;-72
2021/12/09 01:30:21;;;;;;;;;2.00;1.00;;;;;6.49;58.69;100105.69;5053894;28;45789;-73
2021/12/09 01:32:51;;;;;;;;;1.00;1.00;;;;;6.40;59.08;100092.63;5056011;28;45460;-73
2021/12/09 01:35:26;;;;;;;;;2.00;0.75;;;;;6.63;58.37;100127.50;5053368;28;45726;-72
2021/12/09 01:37:55;;;;;;;;;1.00;0.00;;;;;6.21;58.97;100055.16;5053742;28;45535;-73
2021/12/09 01:40:22;;;;;;;;;1.75;1.75;;;;;6.70;58.44;100142.31;5053052;28;45484;-73
2021/12/09 01:42:49;;;;;;;;;1.00;1.00;;;;;6.75;58.67;100148.41;5059765;28;45441;-73
2021/12/09 01:45:14;;;;;;;;;1.25;1.00;;;;;6.62;58.60;100123.16;5056506;28;45559;-71
2021/12/09 01:47:40;;;;;;;;;1.00;1.00;;;;;6.67;58.76;100126.69;5057629;28;45479;-72
2021/12/09 01:50:09;;;;;;;;;2.75;1.00;;;;;6.72;58.25;100137.13;5056917;28;45382;-71
2021/12/09 01:52:34;;;;;;;;;0.50;0.00;;;;;6.48;58.56;100107.44;5048934;28;45640;-82
2021/12/09 01:55:00;;;;;;;;;1.00;0.75;;;;;6.76;58.23;100158.00;5039417;28;46636;-71
2021/12/09 01:57:26;;;;;;;;;1.00;1.00;;;;;6.69;58.89;100152.69;5056485;28;45388;-73
2021/12/09 01:59:52;;;;;;;;;3.00;0.25;;;;;6.81;58.07;100163.22;5067231;28;45397;-72
2021/12/09 02:02:18;;;;;;;;;2.00;1.00;;;;;6.82;58.59;100164.97;5061309;27;45399;-72
2021/12/09 02:04:44;;;;;;;;;1.00;1.00;;;;;6.64;58.30;100137.03;5056688;28;45913;-72
2021/12/09 02:07:10;;;;;;;;;3.00;1.00;;;;;6.85;57.93;100164.13;5056873;28;45532;-76
2021/12/09 02:09:38;;;;;;;;;2.00;1.00;;;;;6.64;57.75;100128.38;5053726;28;45412;-72
2021/12/09 02:12:05;;;;;;;;;3.00;1.00;;;;;6.87;58.34;100167.59;5057006;28;45274;-71
2021/12/09 02:14:31;;;;;;;;;0.00;0.00;;;;;6.85;58.54;100162.38;5056406;28;47911;-72
2021/12/09 02:16:56;;;;;;;;;1.00;1.00;;;;;6.59;58.38;100117.91;5057046;28;45457;-75
2021/12/09 02:19:22;;;;;;;;;3.00;1.25;;;;;6.47;58.70;100097.00;5055905;28;45479;-71
2021/12/09 02:21:48;;;;;;;;;2.00;1.00;;;;;6.80;58.18;100154.53;5059773;28;45480;-71
2021/12/09 02:24:16;;;;;;;;;2.25;1.00;;;;;6.42;58.64;100099.56;5059758;28;45459;-71
2021/12/09 02:26:46;;;;;;;;;0.00;0.00;;;;;6.36;58.64;100090.00;5060144;28;45419;-72
2021/12/09 02:29:13;;;;;;;;;1.75;0.75;;;;;6.53;58.65;100107.47;5058657;28;45230;-70
2021/12/09 02:31:41;;;;;;;;;1.00;1.00;;;;;6.73;58.31;100138.84;5056037;28;45492;-74
2021/12/09 02:34:07;;;;;;;;;0.00;0.00;;;;;6.61;58.09;100126.63;5056045;28;46540;-71
2021/12/09 02:36:38;;;;;;;;;3.00;1.00;;;;;6.68;58.09;100146.63;5058001;28;45422;-72
2021/12/09 02:39:13;;;;;;;;;4.00;1.00;;;;;6.73;58.58;100152.72;5046811;28;45675;-76
2021/12/09 02:41:39;;;;;;;;;4.25;1.00;;;;;6.49;58.60;100116.09;5044895;28;45530;-73
2021/12/09 02:44:08;;;;;;;;;1.25;1.00;;;;;6.72;58.21;100152.75;5043408;28;45994;-75
2021/12/09 02:46:37;;;;;;;;;0.00;0.00;;;;;5.56;58.31;99960.13;5034714;28;45512;-75
2021/12/09 02:49:16;;;;;;;;;1.00;1.00;;;;;6.68;58.86;100175.25;5034520;28;45626;-74
2021/12/09 02:51:43;;;;;;;;;1.50;1.00;;;;;6.69;58.61;100177.00;5048114;28;45353;-77
2021/12/09 02:54:11;;;;;;;;;1.00;1.00;;;;;6.53;59.02;100159.50;5042806;28;45504;-72
2021/12/09 02:56:38;;;;;;;;;0.00;0.00;;;;;6.41;59.03;100138.56;5053839;28;45357;-76
2021/12/09 02:59:04;;;;;;;;;1.00;1.00;;;;;6.46;59.30;100150.78;5055508;28;45522;-76
2021/12/09 03:01:36;;;;;;;;;0.00;0.00;;;;;6.50;58.57;100154.25;5055843;28;45401;-76
2021/12/09 03:04:04;;;;;;;;;2.00;0.00;;;;;6.50;59.11;100175.06;5060144;28;47882;-75
2021/12/09 03:06:36;;;;;;;;;1.50;0.75;;;;;6.51;59.40;100184.66;5068723;28;45452;-76
2021/12/09 03:09:18;;;;;;;;;0.50;0.50;;;;;6.51;59.62;100172.50;5056904;28;45277;-76
2021/12/09 03:11:48;;;;;;;;;1.50;1.00;;;;;6.51;59.67;100175.09;5059379;28;45425;-75
2021/12/09 03:14:13;;;;;;;;;1.50;1.00;;;;;6.51;59.80;100179.44;5055819;28;45913;-77
2021/12/09 03:16:40;;;;;;;;;4.50;1.00;;;;;6.43;59.50;100162.88;5055193;28;45488;-74
2021/12/09 03:19:08;;;;;;;;;1.75;1.75;;;;;6.50;59.09;100172.47;5056047;28;45729;-77
2021/12/09 03:21:41;;;;;;;;;1.00;0.75;;;;;6.52;59.98;100174.22;5054622;28;45629;-79
2021/12/09 03:24:10;;;;;;;;;3.00;1.00;;;;;6.56;59.75;100181.22;5056102;28;46445;-76
2021/12/09 03:26:42;;;;;;;;;1.00;1.00;;;;;6.60;59.42;100174.31;5056070;28;45394;-77
2021/12/09 03:29:10;;;;;;;;;1.25;1.00;;;;;6.41;59.04;100144.66;5059696;28;45389;-75
2021/12/09 03:31:38;;;;;;;;;1.00;1.00;;;;;6.63;59.24;100178.69;5060294;28;45448;-78
2021/12/09 03:34:05;;;;;;;;;4.50;0.75;;;;;6.48;59.53;100161.22;5059663;28;45497;-76
2021/12/09 03:36:30;;;;;;;;;2.00;1.00;;;;;6.57;59.57;100182.09;5058172;28;45761;-78
2021/12/09 03:39:04;;;;;;;;;1.75;1.00;;;;;6.45;59.25;100164.63;5060224;28;45358;-76
2021/12/09 03:41:30;;;;;;;;;2.25;1.75;;;;;6.14;59.35;100122.72;5061080;28;45428;-77
2021/12/09 03:43:55;;;;;;;;;1.00;1.00;;;;;6.66;60.09;100192.56;5059049;28;45511;-77
2021/12/09 03:46:21;;;;;;;;;3.50;1.25;;;;;6.66;59.72;100197.78;5046390;28;45353;-79
2021/12/09 03:48:47;;;;;;;;;1.50;1.50;;;;;6.62;59.58;100189.94;5046279;28;45485;-80
2021/12/09 03:51:13;;;;;;;;;2.50;0.00;;;;;6.58;59.19;100179.50;5057871;28;45391;-79
2021/12/09 03:53:39;;;;;;;;;1.00;1.00;;;;;6.57;59.56;100185.56;5044316;28;45525;-72
2021/12/09 03:56:05;;;;;;;;;5.00;1.00;;;;;6.49;59.30;100175.94;5045616;28;45306;-77
2021/12/09 03:58:31;;;;;;;;;1.00;1.00;;;;;6.46;59.26;100178.53;5055765;28;45354;-76
2021/12/09 04:00:57;;;;;;;;;2.25;1.00;;;;;6.44;59.35;100183.72;5062239;28;45220;-78
2021/12/09 04:03:23;;;;;;;;;3.00;1.00;;;;;6.08;59.67;100119.19;5064761;28;45392;-76
2021/12/09 04:05:49;;;;;;;;;2.00;2.00;;;;;6.54;59.95;100195.06;5063269;28;45357;-76
2021/12/09 04:08:16;;;;;;;;;1.25;1.25;;;;;6.44;59.68;100185.44;5060828;28;45341;-78
2021/12/09 04:10:43;;;;;;;;;1.00;1.00;;;;;6.47;59.71;100193.28;5061524;28;45475;-77
2021/12/09 04:13:09;;;;;;;;;4.00;1.00;;;;;6.21;59.66;100156.59;5060151;28;45497;-71
2021/12/09 04:15:35;;;;;;;;;1.00;1.00;;;;;6.28;59.54;100168.78;5057094;28;45464;-72
2021/12/09 04:18:01;;;;;;;;;4.00;2.50;;;;;6.57;59.37;100216.81;5054813;28;45437;-71
2021/12/09 04:20:27;;;;;;;;;2.25;2.25;;;;;6.50;59.73;100235.81;5057567;28;46222;-72
2021/12/09 04:22:54;;;;;;;;;1.00;1.00;;;;;6.33;60.15;100188.78;5054770;28;45508;-72
2021/12/09 04:25:21;;;;;;;;;2.00;1.00;;;;;6.43;59.34;100200.19;5053957;28;45408;-72
2021/12/09 04:27:48;;;;;;;;;2.75;1.00;;;;;6.48;59.43;100226.25;5055595;28;45492;-72
2021/12/09 04:30:15;;;;;;;;;1.50;1.00;;;;;6.53;59.97;100214.16;5054392;28;45476;-71
2021/12/09 04:32:41;;;;;;;;;1.75;1.00;;;;;6.46;59.84;100215.81;5054124;28;45529;-71
2021/12/09 04:35:09;;;;;;;;;1.00;1.00;;;;;6.34;59.36;100187.94;5057894;28;45303;-73
2021/12/09 04:37:36;;;;;;;;;0.50;0.50;;;;;6.41;59.47;100199.28;5074948;28;45435;-71
2021/12/09 04:40:04;;;;;;;;;3.00;1.75;;;;;6.54;59.49;100221.09;5057314;28;45561;-71
2021/12/09 04:42:30;;;;;;;;;1.00;1.00;;;;;6.28;59.71;100190.47;5056446;28;45522;-71
2021/12/09 04:44:55;;;;;;;;;3.25;1.75;;;;;6.27;59.77;100182.66;5053178;28;45334;-71
2021/12/09 04:47:21;;;;;;;;;1.00;0.00;;;;;6.22;59.52;100169.63;5056743;28;45236;-72
2021/12/09 04:49:47;;;;;;;;;1.00;0.00;;;;;6.47;60.53;100216.69;5054947;28;45327;-73
2021/12/09 04:52:13;;;;;;;;;2.75;2.00;;;;;6.54;60.11;100219.34;5053671;28;45468;-71
2021/12/09 04:54:41;;;;;;;;;2.00;2.00;;;;;6.44;59.88;100204.50;5053693;28;46243;-71
2021/12/09 04:57:11;;;;;;;;;1.00;1.00;;;;;6.48;59.50;100206.31;5054092;28;45390;-71
2021/12/09 04:59:38;;;;;;;;;1.75;1.75;;;;;6.54;60.06;100228.91;5055484;28;45251;-71
2021/12/09 05:02:08;;;;;;;;;2.00;1.00;;;;;6.54;59.60;100224.56;5058206;28;45441;-70
2021/12/09 05:04:34;;;;;;;;;1.50;1.50;;;;;6.43;59.87;100200.19;5059023;28;45237;-72
2021/12/09 05:06:59;;;;;;;;;5.00;2.00;;;;;6.51;59.81;100232.34;5053780;28;45444;-71
2021/12/09 05:09:29;;;;;;;;;4.25;1.50;;;;;6.53;59.89;100230.63;5053018;28;45369;-73
2021/12/09 05:11:55;;;;;;;;;1.00;0.00;;;;;6.44;59.97;100237.47;5056247;28;46083;-71
2021/12/09 05:14:23;;;;;;;;;5.00;1.75;;;;;6.35;60.00;100236.50;5055253;28;45496;-71
2021/12/09 05:16:53;;;;;;;;;2.25;2.25;;;;;6.17;60.29;100202.50;5055246;28;45737;-71
2021/12/09 05:19:22;;;;;;;;;2.50;2.00;;;;;6.24;60.34;100222.53;5061001;28;45800;-71
2021/12/09 05:21:48;;;;;;;;;6.50;2.75;;;;;5.82;60.49;100150.94;5061674;28;45603;-72
2021/12/09 05:24:15;;;;;;;;;4.00;2.00;;;;;6.27;60.42;100217.34;5059859;28;45362;-71
2021/12/09 05:26:47;;;;;;;;;3.50;2.75;;;;;6.42;59.89;100237.44;5058635;28;45556;-70
2021/12/09 05:29:15;;;;;;;;;4.50;3.00;;;;;6.34;60.39;100229.56;5057191;28;45514;-71
2021/12/09 05:34:25;;;;;;;;;4.00;2.25;;;;;6.42;60.60;100239.19;5056427;28;45399;-71
2021/12/09 05:36:51;;;;;;;;;3.25;2.75;;;;;6.45;60.24;100244.41;5058386;28;45344;-71
2021/12/09 05:39:17;;;;;;;;;4.00;2.50;;;;;6.19;60.42;100190.38;5053896;28;45407;-71
2021/12/09 05:41:44;;;;;;;;;2.00;2.00;;;;;6.42;60.21;100233.97;5051887;28;46298;-71
2021/12/09 05:44:11;;;;;;;;;3.50;2.00;;;;;6.39;59.99;100229.63;5040709;28;45323;-71
2021/12/09 05:46:41;;;;;;;;;2.75;2.75;;;;;6.45;60.71;100250.47;5044953;28;45786;-70
2021/12/09 05:49:07;;;;;;;;;3.50;3.00;;;;;6.46;59.99;100246.16;5059386;28;45176;-71
2021/12/09 05:51:33;;;;;;;;;6.25;5.00;;;;;6.35;60.73;100220.88;5055902;28;45445;-71
2021/12/09 05:53:59;;;;;;;;;3.50;3.50;;;;;6.20;59.87;100189.53;5056138;28;45491;-72
2021/12/09 05:56:25;;;;;;;;;4.00;3.00;;;;;6.39;60.04;100237.41;5059360;28;45583;-73
2021/12/09 05:58:51;;;;;;;;;3.50;3.50;;;;;6.25;60.79;100211.25;5056820;28;45491;-76
2021/12/09 06:01:17;;;;;;;;;6.00;4.00;;;;;6.43;60.20;100249.63;5056032;28;46060;-72
2021/12/09 06:03:43;;;;;;;;;3.00;3.00;;;;;6.40;59.94;100256.50;5056467;28;45879;-71
2021/12/09 06:06:09;;;;;;;;;4.75;3.25;;;;;6.23;60.36;100228.56;5056057;28;45444;-72
2021/12/09 06:08:37;;;;;;;;;2.25;2.25;;;;;6.26;60.65;100241.59;5057219;28;45336;-76
2021/12/09 06:11:04;;;;;;;;;4.00;3.00;;;;;6.12;60.96;100227.56;5056355;28;45375;-71
2021/12/09 06:13:31;;;;;;;;;4.50;0.00;;;;;6.04;60.66;100213.59;5059517;28;45456;-73
2021/12/09 06:15:56;;;;;;;;;4.25;4.25;;;;;6.36;60.97;100266.00;5055825;28;45444;-70
2021/12/09 06:18:22;;;;;;;;;6.25;4.75;;;;;6.39;60.40;100263.44;5055831;28;45455;-75
2021/12/09 06:20:48;;;;;;;;;6.25;4.00;;;;;6.33;60.45;100253.81;5055626;28;45872;-73
2021/12/09 06:23:14;;;;;;;;;7.25;4.75;;;;;6.45;60.30;100265.22;5058849;28;45922;-74
2021/12/09 06:25:40;;;;;;;;;3.00;2.75;;;;;6.44;60.52;100269.56;5060985;28;45380;-72
2021/12/09 06:28:05;;;;;;;;;3.00;3.00;;;;;6.48;60.80;100273.06;5055590;28;45611;-73
2021/12/09 06:30:31;;;;;;;;;5.25;3.25;;;;;6.47;60.80;100279.13;5056272;28;45454;-72
2021/12/09 06:32:56;;;;;;;;;5.25;4.25;;;;;6.12;60.23;100205.06;5056859;28;45398;-72
2021/12/09 06:35:26;;;;;;;;;4.25;4.00;;;;;6.35;60.14;100259.91;5056396;28;45356;-70
2021/12/09 06:37:53;;;;;;;;;5.00;3.00;;;;;6.46;60.41;100272.19;5055656;28;45365;-73
2021/12/09 06:40:22;;;;;;;;;5.00;3.25;;;;;6.44;60.66;100279.09;5059005;28;46364;-71
2021/12/09 06:42:49;;;;;;;;;4.50;4.50;;;;;6.25;60.91;100247.66;5055857;28;45332;-72
2021/12/09 06:45:17;;;;;;;;;5.75;5.00;;;;;6.42;60.62;100273.88;5055344;28;45417;-72
2021/12/09 06:47:43;;;;;;;;;4.00;4.00;;;;;6.34;60.41;100267.72;5055715;28;45400;-73
2021/12/09 06:50:12;;;;;;;;;5.25;5.25;;;;;6.42;60.77;100293.81;5055800;28;45490;-72
2021/12/09 06:52:38;;;;;;;;;4.00;4.00;;;;;6.40;60.27;100298.97;5056011;28;45450;-71
2021/12/09 06:55:10;;;;;;;;;5.00;5.00;;;;;6.34;60.73;100288.53;5055692;28;45859;-72
2021/12/09 06:57:36;;;;;;;;;6.00;4.50;;;;;6.22;60.61;100270.16;5056179;28;45380;-72
2021/12/09 07:00:05;;;;;;;;;6.25;5.00;;;;;6.08;59.95;100251.78;5055735;28;46280;-73
2021/12/09 07:02:30;;;;;;;;;6.25;5.00;;;;;6.00;60.80;100241.28;5053650;28;45523;-72
2021/12/09 07:04:57;;;;;;;;;4.25;4.00;;;;;6.34;60.38;100299.78;5053823;27;45493;-73
2021/12/09 07:07:23;;;;;;;;;5.25;5.25;;;;;6.02;60.47;100262.09;5052273;28;45556;-73
2021/12/09 07:09:48;;;;;;;;;16.25;10.75;;;;;6.25;60.69;100299.66;5053945;28;46802;-72
2021/12/09 07:12:14;;;;;;;;;9.75;5.00;;;;;6.13;60.27;100281.31;5055154;28;45346;-70
2021/12/09 07:14:42;;;;;;;;;6.00;4.00;;;;;6.22;60.56;100290.97;5055027;28;45353;-72
2021/12/09 07:17:08;;;;;;;;;6.25;6.25;;;;;6.22;60.69;100296.19;5055420;28;45561;-73
2021/12/09 07:19:33;;;;;;;;;9.75;6.25;;;;;6.21;60.34;100297.88;5055175;28;46359;-73
2021/12/09 07:21:59;;;;;;;;;8.25;6.50;;;;;6.18;60.79;100305.66;5058720;28;45416;-76
2021/12/09 07:24:25;;;;;;;;;8.25;7.00;;;;;6.07;61.17;100289.03;5054842;28;45391;-74
2021/12/09 07:26:50;;;;;;;;;5.75;4.50;;;;;5.97;61.28;100267.25;5038203;28;45484;-76
2021/12/09 07:29:16;;;;;;;;;7.00;7.00;;;;;5.74;60.86;100240.91;5035079;28;45524;-76
2021/12/09 07:31:42;;;;;;;;;6.25;5.00;;;;;5.82;60.88;100248.81;5034853;28;45470;-75
2021/12/09 07:34:07;;;;;;;;;8.75;7.00;;;;;5.99;60.76;100288.06;5036618;28;45422;-73
2021/12/09 07:36:34;;;;;;;;;7.00;7.00;;;;;5.90;61.28;100270.56;5037032;28;45416;-76
2021/12/09 07:39:00;;;;;;;;;7.00;6.50;;;;;5.94;60.75;100288.88;5033695;28;45399;-77
2021/12/09 07:41:27;;;;;;;;;9.00;6.50;;;;;5.81;60.85;100276.50;5034549;28;45302;-73
2021/12/09 07:43:53;;;;;;;;;7.50;6.25;;;;;6.02;61.24;100301.97;5033467;28;45574;-72
2021/12/09 07:46:19;;;;;;;;;7.25;6.00;;;;;5.93;61.37;100281.91;5034871;28;45761;-77
2021/12/09 07:48:45;;;;;;;;;7.00;6.00;;;;;6.11;60.80;100307.28;5034479;28;45996;-74
2021/12/09 07:51:11;;;;;;;;;8.50;6.75;;;;;6.08;61.08;100303.78;5034318;28;45389;-71
2021/12/09 07:53:36;;;;;;;;;8.00;8.00;;;;;6.14;60.78;100312.53;5053550;28;45404;-75
2021/12/09 07:56:02;;;;;;;;;7.25;7.25;;;;;6.17;60.81;100309.13;5045096;28;45447;-74
2021/12/09 07:58:28;;;;;;;;;8.25;8.00;;;;;5.90;60.68;100263.66;5039137;28;45374;-76
2021/12/09 08:00:54;;;;;;;;;6.75;6.00;;;;;6.04;61.10;100284.66;5043331;28;45496;-74
2021/12/09 08:03:26;;;;;;;;;12.25;8.00;;;;;5.99;60.96;100269.88;5055009;28;45428;-77
2021/12/09 08:05:52;;;;;;;;;10.50;7.00;;;;;6.45;60.32;100302.50;5059379;28;45502;-77
2021/12/09 08:08:18;;;;;;;;;9.00;8.50;;;;;7.06;59.01;100299.69;5059626;28;45491;-78
2021/12/09 08:10:43;;;;;;;;;6.75;6.00;;;;;7.30;57.70;100233.91;5043056;28;45453;-73
2021/12/09 08:13:09;;;;;;;;;8.50;6.25;;;;;8.03;55.61;100220.41;5038942;28;45392;-73
2021/12/09 08:15:39;;;;;;;;;9.00;8.00;;;;;8.84;54.00;100253.72;5043750;28;45939;-72
2021/12/09 08:20:49;;;;;;;;;7.00;5.25;;;;;10.31;50.47;100243.91;5054243;28;45304;-73
2021/12/09 08:23:15;;;;;;;;;6.00;6.00;;;;;11.29;48.91;100284.31;5054483;28;45448;-71
2021/12/09 08:25:42;;;;;;;;;9.75;7.00;;;;;11.19;47.25;100157.72;5054861;28;45591;-71
2021/12/09 08:28:08;;;;;;;;;9.50;6.50;;;;;12.52;46.34;100234.00;5055001;28;45511;-72
2021/12/09 08:30:33;;;;;;;;;9.50;7.50;;;;;13.41;44.27;100266.84;5054626;28;45420;-76
2021/12/09 08:33:00;;;;;;;;;7.25;7.25;;;;;14.17;42.36;100287.38;5055062;28;45532;-72
2021/12/09 08:35:26;;;;;;;;;11.75;6.75;;;;;14.70;41.83;100251.16;5056740;28;45352;-72
2021/12/09 08:37:56;;;;;;;;;7.50;6.00;;;;;15.76;39.54;100284.66;5054656;28;45509;-72
2021/12/09 08:40:22;;;;;;;;;8.25;5.00;;;;;16.29;38.45;100259.38;5055370;28;45333;-71
2021/12/09 08:42:49;;;;;;;;;6.67;6.33;;;;;17.02;37.16;100252.78;5056585;28;45378;-77
2021/12/09 08:45:18;;;;;;;;;6.33;5.33;;;;;17.97;37.02;100278.69;5055018;28;45591;-72
2021/12/09 08:47:44;;;;;;;;;9.00;7.33;;;;;18.48;36.51;100263.56;5053499;28;45752;-74
2021/12/09 08:50:14;;;;;;;;;8.33;7.00;;;;;19.09;33.90;100254.16;5053407;28;45772;-74
2021/12/09 08:52:40;;;;;;;;;6.33;5.67;;;;;19.83;32.98;100274.03;5057561;28;45391;-75
2021/12/09 08:55:06;;;;;;;;;7.33;6.00;;;;;20.37;31.60;100281.41;5058075;28;45663;-76
2021/12/09 08:57:32;;;;;;;;;6.00;5.33;;;;;20.60;31.50;100256.44;5058268;28;45548;-74
2021/12/09 08:59:59;;;;;;;;;4.67;4.67;;;;;21.02;30.26;100277.44;5058443;28;45381;-73
2021/12/09 09:02:25;;;;;;;;;4.67;4.67;;;;;21.18;31.02;100267.78;5060733;28;45397;-72
2021/12/09 09:04:51;;;;;;;;;7.00;5.00;;;;;21.13;30.68;100283.13;5067286;28;45809;-75
2021/12/09 09:07:17;;;;;;;;;8.00;5.00;;;;;22.03;28.85;100264.34;5059821;28;47171;-75
2021/12/09 09:09:43;;;;;;;;;8.00;5.00;;;;;22.94;27.62;100293.25;5064582;28;45409;-74
2021/12/09 09:12:13;;;;;;;;;5.33;5.33;;;;;23.56;26.50;100299.47;5061089;28;45379;-73
2021/12/09 09:14:41;;;;;;;;;5.33;5.33;;;;;23.69;25.87;100260.38;5063288;28;45643;-74
2021/12/09 09:17:07;;;;;;;;;6.00;6.00;;;;;24.55;25.45;100273.00;5064094;28;45521;-75
2021/12/09 09:19:33;;;;;;;;;6.00;5.00;;;;;25.24;24.60;100279.25;5062735;28;46511;-71
2021/12/09 09:21:59;;;;;;;;;7.00;7.00;;;;;25.62;24.08;100302.63;5058917;28;45543;-73
2021/12/09 09:24:25;;;;;;;;;7.33;4.00;;;;;25.52;23.84;100262.19;5060143;28;45539;-70
2021/12/09 09:26:51;;;;;;;;;6.67;5.00;;;;;26.29;23.37;100312.38;5058544;28;45961;-70
2021/12/09 09:29:17;;;;;;;;;5.00;5.00;;;;;26.39;22.50;100308.09;5058005;28;45836;-69
2021/12/09 09:31:44;;;;;;;;;6.00;5.00;;;;;26.92;22.31;100307.91;5058111;28;45475;-73
2021/12/09 09:34:11;;;;;;;;;5.67;4.33;;;;;27.62;20.89;100313.44;5057472;28;45799;-68
2021/12/09 09:36:39;;;;;;;;;4.00;4.00;;;;;28.09;21.58;100313.44;5056916;28;46153;-69
2021/12/09 09:39:17;;;;;;;;;3.33;1.00;;;;;28.70;20.64;100314.00;5056729;28;45638;-68
2021/12/09 09:41:45;;;;;;;;;6.00;5.00;;;;;28.97;20.48;100320.81;5056136;28;45399;-69
2021/12/09 09:44:14;;;;;;;;;5.00;5.00;;;;;29.22;20.24;100318.84;5056289;28;45746;-68
2021/12/09 09:46:40;;;;;;;;;4.00;3.25;;;;;29.04;19.73;100331.97;5057815;28;46364;-68
2021/12/09 09:49:13;;;;;;;;;4.25;3.50;;;;;27.82;21.09;100311.91;5058450;28;45555;-70
2021/12/09 09:51:40;;;;;;;;;3.50;3.50;;;;;26.47;21.71;100340.63;5056466;28;45524;-66
2021/12/09 09:54:08;;;;;;;;;4.00;4.00;;;;;26.88;21.76;100339.50;5056789;28;45735;-65
2021/12/09 09:56:35;;;;;;;;;4.50;3.25;;;;;27.76;20.46;100308.81;5056749;28;46203;-67
2021/12/09 09:59:07;;;;;;;;;4.00;4.00;;;;;28.76;20.54;100334.22;5055788;28;45765;-67
2021/12/09 10:01:39;;;;;;;;;3.75;3.50;;;;;29.07;19.46;100280.50;5055488;28;45417;-70
2021/12/09 10:04:19;;;;;;;;;5.00;3.75;;;;;29.88;18.47;100329.53;5056818;28;45541;-65
2021/12/09 10:06:45;;;;;;;;;4.75;2.00;;;;;30.28;18.54;100340.47;5055945;28;46098;-65
2021/12/09 10:09:13;;;;;;;;;6.00;6.00;;;;;30.64;17.47;100322.00;5056213;28;45421;-64
2021/12/09 10:11:39;;;;;;;;;8.00;5.50;;;;;30.71;18.12;100325.00;5056954;28;45461;-66
2021/12/09 10:14:15;;;;;;;;;5.50;4.75;;;;;31.03;17.68;100314.84;5056923;28;45784;-65
2021/12/09 10:16:42;;;;;;;;;4.25;3.00;;;;;31.57;17.10;100309.97;5054680;28;46646;-64
2021/12/09 10:19:20;;;;;;;;;4.00;4.00;;;;;32.09;17.22;100320.47;5056369;28;45351;-65
2021/12/09 10:21:46;;;;;;;;;4.25;4.25;;;;;32.28;16.71;100303.31;5060815;28;45322;-67
2021/12/09 10:24:12;;;;;;;;;4.75;3.75;;;;;32.15;16.72;100298.19;5059582;28;45597;-68
2021/12/09 10:26:46;;;;;;;;;5.00;2.50;;;;;32.14;17.34;100273.97;5057505;28;45982;-68
2021/12/09 10:29:17;;;;;;;;;4.00;3.80;;;;;32.68;15.91;100313.88;5050946;28;45441;-64
2021/12/09 10:31:46;;;;;;;;;3.25;3.00;;;;;32.56;16.27;100309.66;5059539;28;45373;-65
2021/12/09 10:34:32;;;;;;;;;3.50;2.75;;;;;32.44;16.35;100289.13;5060304;28;45354;-66
2021/12/09 10:37:01;;;;;;;;;5.75;3.25;;;;;32.10;16.14;100295.94;5055925;28;46541;-67
2021/12/09 10:39:36;;;;;;;;;5.25;3.00;;;;;31.68;16.40;100271.91;5055872;28;45339;-66
2021/12/09 10:42:29;;;;;;;;;3.25;2.50;;;;;31.72;16.63;100282.44;5055938;28;45279;-65
2021/12/09 10:44:59;;;;;;;;;4.00;3.00;;;;;31.70;16.38;100285.28;5053852;28;45314;-67
2021/12/09 10:50:17;;;;;;;;;4.25;4.00;;;;;31.80;16.75;100244.69;5056010;28;45463;-68
2021/12/09 10:52:50;;;;;;;;;4.50;3.25;;;;;31.24;16.28;100284.16;5055537;28;45997;-72
2021/12/09 10:55:21;;;;;;;;;4.00;4.00;;;;;31.47;17.01;100280.19;5055635;28;45671;-67
2021/12/09 10:58:00;;;;;;;;;3.00;3.00;;;;;31.74;16.94;100259.66;5055858;28;45627;-71
2021/12/09 11:00:34;;;;;;;;;6.00;3.50;;;;;31.96;16.32;100274.72;5055972;28;45382;-70
2021/12/09 11:03:14;;;;;;;;;3.75;3.25;;;;;31.38;17.36;100267.50;5055927;28;45430;-75
2021/12/09 11:05:44;;;;;;;;;4.00;4.00;;;;;30.59;17.09;100272.91;5057553;28;45410;-76
2021/12/09 11:08:22;;;;;;;;;5.50;3.00;;;;;29.22;17.90;100262.22;5060297;28;45411;-80
2021/12/09 11:10:56;;;;;;;;;4.00;3.00;;;;;27.67;19.52;100221.63;5056881;28;45282;-75
2021/12/09 11:13:21;;;;;;;;;3.75;3.75;;;;;25.79;21.03;100251.41;5054789;28;45528;-78
2021/12/09 11:15:55;;;;;;;;;5.00;3.67;;;;;23.84;23.57;100272.00;5055985;28;45543;-69
2021/12/09 11:18:39;;;;;;;;;4.00;4.00;;;;;22.12;25.30;100259.50;5053850;28;45644;-66
2021/12/09 11:21:21;;;;;;;;;3.00;3.00;;;;;20.84;26.71;100257.06;5055103;28;45577;-69
2021/12/09 11:23:50;;;;;;;;;4.00;4.00;;;;;19.76;28.69;100269.91;5054837;27;45869;-67
2021/12/09 11:29:27;;;;;;;;;8.00;4.33;;;;;18.11;31.01;100267.59;5054167;28;46475;-64
2021/12/09 11:32:09;;;;;;;;;5.33;5.33;;;;;17.51;31.94;100263.50;5055034;28;45564;-65
2021/12/09 11:34:46;;;;;;;;;5.00;5.00;;;;;16.92;34.16;100264.59;5055134;28;45425;-73
2021/12/09 11:37:36;;;;;;;;;5.00;4.33;;;;;16.33;34.51;100261.03;5055033;28;45508;-72
2021/12/09 11:40:32;;;;;;;;;5.33;4.67;;;;;15.97;35.87;100276.16;5054366;28;45369;-75
2021/12/09 11:43:00;;;;;;;;;12.00;6.67;;;;;15.74;35.62;100271.50;5056091;28;45453;-71
2021/12/09 11:45:31;;;;;;;;;8.00;6.00;;;;;15.26;36.68;100279.72;5057903;28;45424;-67
2021/12/09 11:47:58;;;;;;;;;6.33;5.00;;;;;14.84;37.29;100269.28;5055849;28;45366;-72